• Join FlightAware (Why Join?)
  • Login
  • US Flag 
06:48AM EDT


 

Airport Tracker/Info


-or-


 

Live Flight TrackerFlight Track Log ✈ FLG3733 ✈ 31-Aug-2013 ✈ KDTW - KALB

Flight Track Log - Related Links

Times and Time Zones

All times are in EDT time to prevent confusion due to time zone crossing. See the FLG3733 flight status page for this flight to view local times or setup timezone preferences in your user account.

Time Position Orientation Groundspeed Altitude Reporting Facility
EDT Latitude Longitude Course Direction KTS MPH feet Rate Location/Type
02:40PM 42.2017 -83.3583 178° South 159 183 1,200  Level Cleveland Center
02:41PM 42.1517 -83.3561 178° South 219 252 2,700 1,860 Climbing Cleveland Center
02:42PM 42.0933 -83.3506 176° South 224 258 4,900 2,100 Climbing Cleveland Center
02:43PM 42.0536 -83.2650 122° Southeast 286 329 7,200 2,040 Climbing Cleveland Center
02:44PM 42.0958 -83.1578 62° Northeast 322 371 9,500 1,860 Climbing Cleveland Center
02:45PM 42.1375 -83.0586 60° Northeast 322 371 11,200 1,500 Climbing Cleveland Center
02:46PM 42.1794 -82.9453 63° Northeast 317 365 12,500 1,260 Climbing Cleveland Center
02:47PM 42.2256 -82.8264 62° Northeast 340 391 13,800 1,140 Climbing Cleveland Center
02:48PM 42.2739 -82.7017 62° Northeast 353 406 14,800 1,020 Climbing Cleveland Center
02:49PM 42.3222 -82.5714 63° Northeast 366 421 15,900 1,020 Climbing Cleveland Center
02:50PM 42.3661 -82.4350 66° East 383 441 16,900 960 Climbing Cleveland Center
02:51PM 42.3622 -82.2833 92° East 383 441 17,900 900 Climbing Cleveland Center
02:52PM 42.3556 -82.1622 94° East 389 448 18,800 960 Climbing Cleveland Center
02:53PM 42.3472 -81.9906 94° East 404 465 19,900 1,080 Climbing Cleveland Center
02:54PM 42.3428 -81.8361 92° East 411 473 21,000 1,020 Climbing Cleveland Center
02:55PM 42.3361 -81.6842 93° East 406 467 22,000 960 Climbing Cleveland Center
02:56PM 42.3292 -81.5297 93° East 406 467 23,000 960 Climbing Cleveland Center
02:57PM 42.3200 -81.3611 94° East 406 467 24,000 1,020 Climbing Cleveland Center
02:58PM 42.3147 -81.2122 93° East 406 467 25,100 1,020 Climbing Cleveland Center
02:59PM 42.3069 -81.0606 94° East 406 467 26,100 900 Climbing Cleveland Center
03:00PM 42.2972 -80.9117 95° East 400 460 27,000 660 Climbing Cleveland Center
03:01PM 42.2911 -80.7628 93° East 400 460 27,500 480 Climbing Cleveland Center
03:02PM 42.2831 -80.6056 94° East 405 466 28,000 480 Climbing Cleveland Center
03:03PM 42.2747 -80.4514 94° East 405 466 28,500 480 Climbing Cleveland Center
03:04PM 42.2889 -80.3136 82° East 410 472 29,000 240 Climbing Cleveland Center
03:05PM 42.3053 -80.1508 82° East 425 489 29,000  Level Cleveland Center
03:06PM 42.3211 -79.9906 82° East 437 503 29,000  Level Cleveland Center
03:07PM 42.3389 -79.8247 82° East 442 509 29,000  Level Cleveland Center
03:08PM 42.3544 -79.6503 83° East 453 521 29,000  Level Cleveland Center
03:09PM 42.3694 -79.4817 83° East 453 521 29,000  Level Cleveland Center
03:10PM 42.3864 -79.3069 82° East 453 521 29,000  Level Cleveland Center
03:11PM 42.4011 -79.1381 83° East 458 527 29,000  Level Cleveland Center
03:12PM 42.4156 -78.9661 83° East 458 527 29,000  Level Cleveland Center
03:13PM 42.4319 -78.7997 82° East 458 527 29,000  Level Cleveland Center
03:14PM 42.4458 -78.6275 84° East 458 527 29,000  Level Cleveland Center
03:15PM 42.4611 -78.4386 84° East 458 527 29,000  Level Cleveland Center
03:16PM 42.4747 -78.2719 84° East 458 527 29,000  Level Cleveland Center
03:17PM 42.4878 -78.1025 84° East 453 521 29,000  Level Cleveland Center
03:18PM 42.5008 -77.9414 84° East 443 510 29,000  Level Cleveland Center
03:19PM 42.5097 -77.7919 85° East 438 504 29,000  Level Cleveland Center
03:20PM 42.5267 -77.6275 82° East 438 504 29,000  Level Cleveland Center
03:21PM 42.5383 -77.4411 85° East 448 516 29,000  Level Cleveland Center
03:22PM 42.5503 -77.2742 84° East 448 516 29,000  Level Cleveland Center
03:24PM 42.5814 -77.0144 81° East 439 505 29,000  Level Boston Center
03:25PM 42.6067 -76.8500 78° East 444 511 29,000  Level Boston Center
03:26PM 42.6419 -76.6886 73° East 444 511 29,000  Level Boston Center
03:27PM 42.6953 -76.5397 64° Northeast 438 504 29,000 -240 Level Boston Center
03:28PM 42.7489 -76.3847 65° Northeast 438 504 28,600 -660 Descending Boston Center
03:29PM 42.7975 -76.2408 65° Northeast 454 522 27,700 -1,020 Descending Boston Center
03:30PM 42.8467 -76.0767 68° East 460 529 26,700 -1,380 Descending Boston Center
03:31PM 42.9017 -75.9153 65° Northeast 460 529 25,100 -2,040 Descending Boston Center
03:32PM 42.9397 -75.7558 72° East 460 529 22,600 -2,460 Descending Boston Center
03:33PM 42.9342 -75.5908 93° East 431 496 20,100 -2,400 Descending Boston Center
03:34PM 42.9217 -75.4314 96° East 426 490 17,900 -2,220 Descending Boston Center
03:35PM 42.9050 -75.2747 98° East 421 484 15,800 -2,040 Descending Boston Center
03:36PM 42.8878 -75.1267 99° East 409 471 13,900 -2,040 Descending Boston Center
03:37PM 42.8744 -74.9786 97° East 399 459 11,900 -1,560 Descending Boston Center
03:38PM 42.8586 -74.8364 99° East 387 445 10,900 -480 Descending Boston Center
03:39PM 42.8447 -74.7000 98° East 373 429 11,000  Climbing Boston Center
03:40PM 42.8292 -74.5436 98° East 373 429 11,000 -120 Level Boston Center
03:41PM 42.8189 -74.4186 96° East 373 429 10,800 -1,500 Descending Boston Center
03:42PM 42.8417 -74.2919 76° East 326 375 8,000 -2,580 Descending Boston Center
03:43PM 42.8600 -74.1906 76° East 311 358 5,600 -2,520 Descending Boston Center
03:44PM 42.8806 -74.0750 76° East 288 331 3,100 -1,320 Descending Boston Center
03:45PM 42.8964 -73.9847 77° East 276 318 3,000 -60 Descending Boston Center
03:46PM 42.9144 -73.8803 77° East 270 311 3,000 -540 Level Boston Center
03:47PM 42.8778 -73.8169 128° Southeast 200 230 2,000 -720 Descending Boston Center
03:48PM 42.8172 -73.8100 175° South 173 199 1,500 -600 Descending Boston Center
03:49PM 42.7778 -73.8092 179° South 142 163 800 -780 Descending Boston Center
03:54PM 42.7491 -73.8020 147° Southeast  Level Estimated